Time;durP1;ratioP1;P1;durP2;ratioP2;P2;SDS_P1;SDS_P2;PMS_P1;PMS_P2;Temp;Humidity;BMP_temperature;BMP_pressure;BME280_temperature;BME280_humidity;BME280_pressure;Samples;Min_cycle;Max_cycle;Signal;HPM_P1;HPM_P2
2022/04/17 00:01:38;;;;;;;11.32;9.55;;;19.60;99.90;;;;;;5048605;28;20033;-68
2022/04/17 00:04:07;;;;;;;12.63;8.25;;;19.80;99.90;;;;;;5043252;28;20029;-68
2022/04/17 00:06:34;;;;;;;10.55;9.05;;;20.20;99.90;;;;;;5038524;28;20029;-68
2022/04/17 00:09:02;;;;;;;12.15;9.07;;;20.30;99.90;;;;;;5038605;28;20032;-69
2022/04/17 00:11:29;;;;;;;11.23;7.55;;;20.50;99.90;;;;;;5050816;28;20412;-69
2022/04/17 00:13:58;;;;;;;9.35;6.82;;;20.50;99.90;;;;;;5049154;28;20033;-68
2022/04/17 00:16:26;;;;;;;7.90;5.97;;;20.70;99.90;;;;;;5052975;28;20021;-68
2022/04/17 00:18:53;;;;;;;7.97;6.00;;;21.10;99.90;;;;;;5053057;28;20385;-68
2022/04/17 00:21:23;;;;;;;8.32;6.47;;;21.00;99.90;;;;;;5055897;28;20037;-68
2022/04/17 00:23:50;;;;;;;10.25;6.53;;;21.20;99.90;;;;;;5046242;28;20352;-68
2022/04/17 00:26:19;;;;;;;8.77;6.25;;;21.20;99.90;;;;;;5052733;28;20063;-68
2022/04/17 00:28:46;;;;;;;9.13;6.28;;;21.20;99.90;;;;;;5048125;28;20021;-68
2022/04/17 00:31:14;;;;;;;7.50;6.05;;;21.50;99.90;;;;;;5051308;28;20049;-68
2022/04/17 00:33:41;;;;;;;7.47;5.18;;;21.70;99.90;;;;;;5028706;28;20041;-69
2022/04/17 00:36:09;;;;;;;5.65;3.60;;;21.80;99.90;;;;;;5044989;28;20104;-68
2022/04/17 00:38:36;;;;;;;4.10;2.50;;;21.70;99.90;;;;;;5051919;28;20432;-68
2022/04/17 00:41:03;;;;;;;4.30;2.83;;;21.70;99.90;;;;;;5047521;28;20412;-69
2022/04/17 00:43:34;;;;;;;4.65;2.63;;;21.70;99.90;;;;;;5036586;28;20466;-68
2022/04/17 00:46:01;;;;;;;5.53;2.80;;;22.00;99.90;;;;;;5050580;28;20033;-67
2022/04/17 00:48:29;;;;;;;1.60;1.00;;;22.50;99.90;;;;;;5050581;28;20024;-68
2022/04/17 00:50:58;;;;;;;2.45;1.00;;;22.60;99.90;;;;;;5050819;28;20021;-67
2022/04/17 00:53:27;;;;;;;4.30;2.50;;;22.50;99.90;;;;;;5045981;28;20032;-68
2022/04/17 00:55:55;;;;;;;5.40;1.77;;;22.80;99.90;;;;;;5051717;28;20025;-68
2022/04/17 00:58:23;;;;;;;3.33;1.73;;;22.10;99.90;;;;;;5034553;28;20535;-68
2022/04/17 01:00:51;;;;;;;1.98;0.80;;;22.00;99.90;;;;;;5051459;28;20021;-68
2022/04/17 01:03:19;;;;;;;2.63;1.40;;;22.40;99.90;;;;;;5039792;28;20028;-69
2022/04/17 01:05:47;;;;;;;3.05;1.48;;;22.90;99.90;;;;;;5051317;28;20104;-67
2022/04/17 01:08:15;;;;;;;2.40;1.15;;;23.00;99.90;;;;;;5049544;28;20032;-67
2022/04/17 01:10:42;;;;;;;3.97;1.10;;;22.80;99.90;;;;;;5050883;28;20029;-67
2022/04/17 01:13:10;;;;;;;3.33;0.98;;;22.60;99.90;;;;;;5055660;28;20112;-67
2022/04/17 01:15:38;;;;;;;3.67;1.25;;;23.00;99.90;;;;;;5041230;28;20496;-67
2022/04/17 01:18:06;;;;;;;2.63;1.30;;;23.60;99.90;;;;;;5054373;28;20036;-67
2022/04/17 01:20:33;;;;;;;2.08;1.00;;;23.30;99.90;;;;;;5050936;28;20024;-67
2022/04/17 01:28:30;;;;;;;3.45;0.98;;;23.90;99.90;;;;;;5054750;28;20051;-67
2022/04/17 01:30:58;;;;;;;2.03;1.00;;;23.60;99.90;;;;;;5046095;28;20026;-67
2022/04/17 01:33:25;;;;;;;2.70;0.90;;;23.30;99.90;;;;;;5045364;28;20371;-67
2022/04/17 01:35:53;;;;;;;3.58;1.00;;;23.30;99.90;;;;;;5051817;28;20056;-67
2022/04/17 01:38:20;;;;;;;2.70;1.23;;;23.40;99.90;;;;;;5041559;28;20068;-67
2022/04/17 01:40:47;;;;;;;2.45;0.98;;;23.90;99.90;;;;;;5044038;28;20097;-67
2022/04/17 01:43:14;;;;;;;1.40;0.77;;;23.80;99.90;;;;;;5052906;28;20054;-67
2022/04/17 01:45:42;;;;;;;4.05;1.10;;;23.50;99.90;;;;;;5047721;28;20135;-67
2022/04/17 01:48:09;;;;;;;2.17;0.75;;;23.70;99.90;;;;;;5045093;28;20024;-67
2022/04/17 01:50:36;;;;;;;6.35;1.08;;;24.20;99.90;;;;;;5053081;28;20029;-67
2022/04/17 01:53:04;;;;;;;1.13;0.50;;;24.00;99.90;;;;;;5051632;28;20028;-68
2022/04/17 01:55:32;;;;;;;3.63;1.00;;;24.00;99.90;;;;;;5047829;28;20108;-67
2022/04/17 01:57:59;;;;;;;3.15;0.90;;;23.20;99.90;;;;;;5048620;28;20668;-67
2022/04/17 02:00:27;;;;;;;3.67;1.00;;;22.80;99.90;;;;;;5047128;28;20049;-67
2022/04/17 02:02:54;;;;;;;2.63;0.77;;;22.60;99.90;;;;;;5049520;28;20035;-67
2022/04/17 02:05:21;;;;;;;1.40;0.70;;;22.10;99.90;;;;;;5044604;28;20493;-67
2022/04/17 02:07:48;;;;;;;2.53;0.73;;;22.10;99.90;;;;;;5049356;28;20031;-67
2022/04/17 02:10:19;;;;;;;2.55;1.00;;;22.10;99.90;;;;;;5047469;28;20029;-67
2022/04/17 02:12:47;;;;;;;1.58;0.65;;;22.00;99.90;;;;;;5044233;28;20021;-67
2022/04/17 02:15:16;;;;;;;1.67;0.82;;;22.10;99.90;;;;;;5038253;28;20029;-67
2022/04/17 02:17:43;;;;;;;1.55;0.77;;;22.70;99.90;;;;;;5043653;28;20033;-67
2022/04/17 02:20:11;;;;;;;3.08;0.82;;;23.00;99.90;;;;;;5045164;28;20051;-67
2022/04/17 02:22:42;;;;;;;2.20;1.00;;;22.90;99.90;;;;;;5052279;28;20555;-67
2022/04/17 02:25:09;;;;;;;3.90;1.92;;;22.60;99.90;;;;;;5041269;28;20390;-67
2022/04/17 02:27:37;;;;;;;2.35;1.25;;;22.50;99.90;;;;;;5044906;28;20103;-67
2022/04/17 02:30:08;;;;;;;2.05;0.90;;;22.40;99.90;;;;;;5045962;28;20484;-67
2022/04/17 02:32:36;;;;;;;1.90;0.98;;;22.50;99.90;;;;;;5047567;28;20139;-68
2022/04/17 02:35:03;;;;;;;4.03;0.93;;;23.20;99.90;;;;;;5037266;28;20099;-67
2022/04/17 02:37:31;;;;;;;6.15;1.02;;;23.60;99.90;;;;;;5053353;28;20025;-67
2022/04/17 02:39:58;;;;;;;3.30;1.00;;;23.60;99.90;;;;;;5047778;28;20522;-67
2022/04/17 02:42:25;;;;;;;3.25;0.75;;;23.80;99.90;;;;;;5047298;28;20056;-68
2022/04/17 02:44:52;;;;;;;2.30;0.77;;;24.10;99.90;;;;;;5052378;28;20395;-68
2022/04/17 02:50:06;;;;;;;3.28;0.40;;;24.60;99.90;;;;;;5041122;28;20094;-68
2022/04/17 02:52:33;;;;;;;7.32;0.60;;;24.60;99.90;;;;;;5042641;28;20059;-67
2022/04/17 02:55:00;;;;;;;0.73;0.30;;;24.60;99.90;;;;;;5034286;28;20029;-67
2022/04/17 02:57:28;;;;;;;3.15;0.40;;;23.80;99.90;;;;;;5050558;28;20567;-67
2022/04/17 02:59:55;;;;;;;1.50;0.40;;;23.60;99.90;;;;;;5049091;28;20021;-67
2022/04/17 03:07:53;;;;;;;2.28;0.30;;;24.30;99.90;;;;;;5052371;28;20036;-68
2022/04/17 03:10:21;;;;;;;1.60;0.45;;;23.90;99.90;;;;;;5048646;28;20109;-67
2022/04/17 03:12:49;;;;;;;2.58;0.20;;;23.90;99.90;;;;;;5051726;28;20033;-67
2022/04/17 03:15:17;;;;;;;0.98;0.28;;;23.90;99.90;;;;;;5028050;28;20055;-67
2022/04/17 03:17:44;;;;;;;2.42;0.28;;;23.50;99.90;;;;;;5050197;28;20029;-67
2022/04/17 03:20:11;;;;;;;2.03;0.22;;;23.60;99.90;;;;;;5049933;28;20029;-67
2022/04/17 03:22:42;;;;;;;1.17;0.45;;;23.40;99.90;;;;;;5045877;28;20029;-67
2022/04/17 03:25:11;;;;;;;4.53;0.30;;;23.40;99.90;;;;;;5033914;28;20037;-67
2022/04/17 03:27:40;;;;;;;2.08;0.30;;;23.30;99.90;;;;;;5051475;28;20070;-67
2022/04/17 03:30:08;;;;;;;2.22;0.40;;;23.20;99.90;;;;;;5048726;28;20048;-67
2022/04/17 03:32:36;;;;;;;2.45;0.40;;;23.50;99.90;;;;;;5038924;28;20100;-67
2022/04/17 03:35:03;;;;;;;1.50;0.20;;;23.60;99.90;;;;;;5043255;28;20040;-67
2022/04/17 03:37:30;;;;;;;2.60;0.25;;;23.70;99.90;;;;;;5052666;28;20447;-67
2022/04/17 03:39:58;;;;;;;2.67;0.22;;;23.60;99.90;;;;;;5048472;28;20037;-68
2022/04/17 03:42:25;;;;;;;1.23;0.35;;;23.60;99.90;;;;;;5044964;28;20463;-68
2022/04/17 03:44:53;;;;;;;3.33;0.75;;;23.80;99.90;;;;;;5038886;28;20064;-67
2022/04/17 03:47:20;;;;;;;6.80;0.30;;;23.80;99.90;;;;;;5041667;28;20023;-68
2022/04/17 03:49:47;;;;;;;3.92;0.38;;;23.60;99.90;;;;;;5031921;28;20046;-67
2022/04/17 03:52:15;;;;;;;6.43;0.52;;;23.10;99.90;;;;;;5022362;28;20562;-67
2022/04/17 03:54:42;;;;;;;2.35;0.57;;;23.40;99.90;;;;;;5019756;28;20626;-67
2022/04/17 03:57:09;;;;;;;2.58;0.50;;;23.00;99.90;;;;;;5048076;28;20020;-68
2022/04/17 03:59:36;;;;;;;2.95;0.50;;;22.70;99.90;;;;;;5032596;28;20029;-67
2022/04/17 04:02:04;;;;;;;1.58;0.38;;;23.00;99.90;;;;;;5048330;28;20129;-67
2022/04/17 04:04:31;;;;;;;1.30;0.30;;;22.90;99.90;;;;;;5046369;28;20104;-67
2022/04/17 04:06:58;;;;;;;3.65;0.30;;;22.70;99.90;;;;;;5036983;28;20029;-67
2022/04/17 04:09:26;;;;;;;2.67;0.55;;;22.60;99.90;;;;;;5045343;28;22091;-67
2022/04/17 04:11:53;;;;;;;5.10;0.40;;;22.60;99.90;;;;;;5032509;28;20025;-67
2022/04/17 04:14:20;;;;;;;1.88;0.40;;;22.70;99.90;;;;;;5039555;28;20151;-67
2022/04/17 04:16:48;;;;;;;5.22;0.60;;;22.40;99.90;;;;;;5045138;28;20112;-67
2022/04/17 04:19:15;;;;;;;3.53;0.70;;;22.30;99.90;;;;;;5045696;28;20068;-67
2022/04/17 04:21:48;;;;;;;3.20;0.47;;;22.30;99.90;;;;;;5049809;28;20029;-67
2022/04/17 04:24:17;;;;;;;3.38;0.52;;;22.00;99.90;;;;;;5043952;28;20036;-68
2022/04/17 04:26:44;;;;;;;1.73;0.50;;;22.00;99.90;;;;;;5049174;28;20624;-68
2022/04/17 04:29:13;;;;;;;3.72;0.50;;;21.90;99.90;;;;;;5051112;28;20057;-68
2022/04/17 04:31:40;;;;;;;4.00;0.50;;;21.90;99.90;;;;;;5051535;28;20120;-68
2022/04/17 04:34:07;;;;;;;1.38;0.20;;;21.80;99.90;;;;;;5051544;28;20087;-68
2022/04/17 04:36:35;;;;;;;3.67;0.40;;;21.90;99.90;;;;;;5053736;28;20049;-68
2022/04/17 04:39:02;;;;;;;2.80;0.25;;;21.90;99.90;;;;;;5052073;28;20033;-68
2022/04/17 04:41:29;;;;;;;1.95;0.45;;;22.10;99.90;;;;;;5044212;28;20504;-68
2022/04/17 04:43:56;;;;;;;2.30;0.25;;;22.10;99.90;;;;;;5046503;28;20493;-68
2022/04/17 04:46:23;;;;;;;1.90;0.30;;;22.10;99.90;;;;;;5030896;28;20546;-68
2022/04/17 04:51:36;;;;;;;2.33;0.40;;;22.20;99.90;;;;;;5038082;28;20054;-68
2022/04/17 04:54:07;;;;;;;2.75;0.25;;;22.10;99.90;;;;;;5051107;28;20159;-68
2022/04/17 04:56:34;;;;;;;1.27;0.20;;;22.10;99.90;;;;;;5048193;28;20089;-67
2022/04/17 04:59:03;;;;;;;4.32;0.50;;;22.10;99.90;;;;;;5030179;28;20032;-68
2022/04/17 05:01:30;;;;;;;2.03;0.20;;;22.00;99.90;;;;;;5048937;28;20053;-68
2022/04/17 05:03:57;;;;;;;2.55;0.40;;;22.00;99.90;;;;;;5046722;28;20036;-68
2022/04/17 05:06:24;;;;;;;2.22;0.30;;;22.00;99.90;;;;;;5055553;28;20108;-67
2022/04/17 05:08:52;;;;;;;3.05;0.40;;;21.90;99.90;;;;;;5055116;28;20497;-68
2022/04/17 05:11:20;;;;;;;1.67;0.30;;;21.90;99.90;;;;;;5039331;28;20014;-68
2022/04/17 05:13:47;;;;;;;1.77;0.20;;;21.80;99.90;;;;;;5050167;28;20083;-68
2022/04/17 05:16:15;;;;;;;3.38;0.70;;;21.80;99.90;;;;;;5040059;28;20542;-67
2022/04/17 05:18:42;;;;;;;2.47;0.68;;;21.70;99.90;;;;;;5040864;28;20397;-68
2022/04/17 05:21:10;;;;;;;2.15;0.50;;;21.80;99.90;;;;;;5054822;28;20054;-68
2022/04/17 05:23:37;;;;;;;1.65;0.30;;;21.90;99.90;;;;;;5058262;28;20021;-68
2022/04/17 05:26:05;;;;;;;3.00;0.45;;;21.90;99.90;;;;;;5041112;28;20025;-67
2022/04/17 05:28:32;;;;;;;0.98;0.28;;;21.90;99.90;;;;;;5041180;28;20034;-68
2022/04/17 05:31:00;;;;;;;2.38;0.40;;;21.80;99.90;;;;;;5054475;28;20420;-68
2022/04/17 05:33:27;;;;;;;3.42;0.60;;;21.90;99.90;;;;;;5058672;28;20024;-68
2022/04/17 05:35:55;;;;;;;3.45;0.55;;;22.00;99.90;;;;;;5035831;28;20095;-68
2022/04/17 05:38:22;;;;;;;2.65;0.50;;;21.90;99.90;;;;;;5060044;28;20031;-68
2022/04/17 05:40:51;;;;;;;0.35;0.20;;;21.90;99.90;;;;;;5055245;28;20021;-68
2022/04/17 05:43:20;;;;;;;2.15;0.77;;;21.90;99.90;;;;;;5052207;28;20030;-68
2022/04/17 05:45:50;;;;;;;2.15;0.57;;;21.90;99.90;;;;;;5037456;28;20052;-68
2022/04/17 05:48:18;;;;;;;1.15;0.32;;;22.00;99.90;;;;;;5058661;28;20020;-68
2022/04/17 05:50:45;;;;;;;2.13;0.47;;;22.00;99.90;;;;;;5045563;28;20516;-68
2022/04/17 05:53:13;;;;;;;1.73;0.30;;;22.00;99.90;;;;;;5055681;28;20017;-68
2022/04/17 05:55:41;;;;;;;2.53;0.75;;;22.00;99.90;;;;;;5040511;28;20025;-68
2022/04/17 05:58:08;;;;;;;2.40;0.50;;;21.90;99.90;;;;;;5053995;28;20033;-68
2022/04/17 06:00:36;;;;;;;1.65;0.63;;;21.90;99.90;;;;;;5056180;28;20033;-68
2022/04/17 06:03:05;;;;;;;1.67;0.40;;;21.90;99.90;;;;;;5054851;28;20036;-68
2022/04/17 06:05:32;;;;;;;3.40;0.80;;;21.90;99.90;;;;;;5054805;28;20062;-68
2022/04/17 06:11:16;;;;;;;2.33;0.40;;;21.80;99.90;;;;;;5047888;28;20029;-68
2022/04/17 06:13:43;;;;;;;3.72;0.50;;;21.80;99.90;;;;;;5047300;28;20500;-68
2022/04/17 06:16:10;;;;;;;2.25;0.30;;;21.80;99.90;;;;;;5054788;28;20033;-68
2022/04/17 06:18:38;;;;;;;4.85;0.40;;;21.80;99.90;;;;;;5028944;28;20037;-68
2022/04/17 06:21:05;;;;;;;2.63;0.40;;;21.80;99.90;;;;;;5049714;28;20036;-67
2022/04/17 06:23:33;;;;;;;3.33;0.40;;;21.70;99.90;;;;;;5053637;28;20021;-68
2022/04/17 06:26:04;;;;;;;2.85;0.47;;;21.70;99.90;;;;;;5055698;28;20040;-68
2022/04/17 06:28:32;;;;;;;5.07;0.68;;;21.70;99.90;;;;;;5057618;28;20044;-67
2022/04/17 06:30:59;;;;;;;1.20;0.20;;;21.60;99.90;;;;;;5058104;28;20036;-68
2022/04/17 06:33:26;;;;;;;0.80;0.20;;;21.60;99.90;;;;;;5060196;28;20048;-68
2022/04/17 06:35:54;;;;;;;1.98;0.38;;;21.50;99.90;;;;;;5057948;28;20079;-68
2022/04/17 06:38:23;;;;;;;1.45;0.10;;;21.50;99.90;;;;;;5055641;28;20135;-68
2022/04/17 06:40:51;;;;;;;2.42;0.50;;;21.40;99.90;;;;;;5058053;28;20040;-67
2022/04/17 06:43:18;;;;;;;2.10;0.45;;;21.40;99.90;;;;;;5060684;28;20062;-68
2022/04/17 06:45:46;;;;;;;2.83;0.50;;;21.40;99.90;;;;;;5058790;28;20108;-68
2022/04/17 06:48:18;;;;;;;4.03;0.65;;;21.40;99.90;;;;;;5050675;28;20052;-67
2022/04/17 06:50:47;;;;;;;2.97;0.40;;;21.30;99.90;;;;;;5054185;28;20036;-67
2022/04/17 06:53:15;;;;;;;2.40;0.30;;;21.20;99.90;;;;;;5053141;28;20025;-67
2022/04/17 06:55:43;;;;;;;2.63;0.30;;;21.20;99.90;;;;;;5048662;28;20017;-67
2022/04/17 06:58:10;;;;;;;3.05;0.40;;;21.10;99.90;;;;;;5049193;28;20039;-67
2022/04/17 07:00:39;;;;;;;1.13;0.20;;;21.00;99.90;;;;;;5053318;28;20036;-67
2022/04/17 07:03:06;;;;;;;2.83;0.52;;;21.00;99.90;;;;;;5031225;28;20044;-67
2022/04/17 07:05:34;;;;;;;2.67;0.40;;;21.00;99.90;;;;;;5048571;28;20025;-69
2022/04/17 07:08:03;;;;;;;0.90;0.30;;;20.90;99.90;;;;;;5047281;28;20029;-69
2022/04/17 07:10:32;;;;;;;1.73;0.25;;;20.90;99.90;;;;;;5046909;28;20021;-68
2022/04/17 07:13:00;;;;;;;2.47;0.32;;;20.80;99.90;;;;;;5050496;28;20025;-69
2022/04/17 07:15:28;;;;;;;2.35;0.77;;;20.80;99.90;;;;;;5047627;28;20024;-68
2022/04/17 07:17:56;;;;;;;3.15;0.77;;;20.70;99.90;;;;;;5047585;28;20056;-69
2022/04/17 07:20:24;;;;;;;2.35;0.73;;;20.70;99.90;;;;;;5049029;28;20029;-68
2022/04/17 07:22:52;;;;;;;1.98;0.77;;;20.60;99.90;;;;;;5043099;28;20440;-68
2022/04/17 07:25:20;;;;;;;3.70;0.93;;;20.60;99.90;;;;;;5052899;28;20029;-68
2022/04/17 07:27:50;;;;;;;5.32;1.35;;;20.60;99.90;;;;;;5047200;28;20535;-68
2022/04/17 07:30:22;;;;;;;3.47;0.65;;;20.60;99.90;;;;;;5045214;28;20044;-71
2022/04/17 07:32:54;;;;;;;1.23;0.50;;;20.50;99.90;;;;;;5044263;28;20072;-71
2022/04/17 07:35:26;;;;;;;4.05;0.77;;;20.50;99.90;;;;;;5051297;28;20086;-71
2022/04/17 07:38:05;;;;;;;2.13;0.55;;;20.50;99.90;;;;;;5025110;28;20424;-71
2022/04/17 07:40:34;;;;;;;4.72;0.85;;;20.40;99.90;;;;;;5047594;28;20057;-71
2022/04/17 07:43:06;;;;;;;2.25;0.57;;;20.40;99.90;;;;;;5043909;28;20075;-72
2022/04/17 07:45:34;;;;;;;3.13;0.70;;;20.40;99.90;;;;;;5031537;28;20125;-71
2022/04/17 07:48:03;;;;;;;3.53;0.80;;;20.40;99.90;;;;;;5025020;28;20362;-72
2022/04/17 07:50:32;;;;;;;2.22;0.82;;;20.40;99.90;;;;;;5050061;28;20505;-72
2022/04/17 07:53:00;;;;;;;3.13;1.25;;;20.30;99.90;;;;;;5047468;28;20033;-72
2022/04/17 07:55:28;;;;;;;2.97;1.20;;;20.30;99.90;;;;;;5047055;28;20029;-72
2022/04/17 07:58:03;;;;;;;3.17;0.90;;;20.20;99.90;;;;;;5049614;28;20108;-72
2022/04/17 08:00:45;;;;;;;3.58;0.98;;;20.20;99.90;;;;;;5049818;28;20025;-72
2022/04/17 08:05:55;;;;;;;3.83;0.60;;;20.10;99.90;;;;;;5053230;28;20021;-72
2022/04/17 08:08:22;;;;;;;3.45;1.00;;;20.10;99.90;;;;;;5047908;28;20056;-72
2022/04/17 08:10:50;;;;;;;4.50;1.02;;;20.00;99.90;;;;;;5051797;28;20035;-72
2022/04/17 08:13:18;;;;;;;2.03;0.95;;;20.00;99.90;;;;;;5046837;28;20033;-72
2022/04/17 08:15:45;;;;;;;7.78;1.60;;;20.00;99.90;;;;;;5042673;28;20021;-72
2022/04/17 08:18:13;;;;;;;2.88;0.77;;;19.90;99.90;;;;;;5050781;28;20021;-71
2022/04/17 08:20:43;;;;;;;4.60;1.42;;;19.90;99.90;;;;;;5047205;28;20021;-72
2022/04/17 08:23:11;;;;;;;4.32;1.20;;;19.90;99.90;;;;;;5033402;28;20059;-72
2022/04/17 08:25:38;;;;;;;2.75;1.02;;;19.90;99.90;;;;;;5045745;28;20025;-72
2022/04/17 08:28:06;;;;;;;7.15;1.20;;;19.90;99.90;;;;;;5047890;28;20040;-72
2022/04/17 08:30:34;;;;;;;4.72;0.80;;;19.90;99.90;;;;;;5045686;28;20031;-72
2022/04/17 08:33:07;;;;;;;4.55;1.55;;;19.90;99.90;;;;;;5046926;28;20040;-72
2022/04/17 08:35:35;;;;;;;4.43;0.77;;;19.80;99.90;;;;;;5052243;28;20436;-72
2022/04/17 08:38:03;;;;;;;3.88;1.08;;;19.80;99.90;;;;;;5047781;28;20402;-72
2022/04/17 08:40:32;;;;;;;3.47;1.08;;;19.80;99.90;;;;;;5045697;28;20112;-72
2022/04/17 08:43:00;;;;;;;5.57;1.63;;;19.70;99.90;;;;;;5049875;28;20040;-72
2022/04/17 08:45:28;;;;;;;6.43;1.45;;;19.80;99.90;;;;;;5051208;28;20033;-72
2022/04/17 08:47:56;;;;;;;6.38;1.52;;;19.70;99.90;;;;;;5040822;28;20029;-72
2022/04/17 08:50:24;;;;;;;4.65;1.35;;;19.70;99.90;;;;;;5027449;28;20383;-71
2022/04/17 08:52:53;;;;;;;4.43;1.27;;;19.70;99.90;;;;;;5059023;28;20041;-72
2022/04/17 08:55:21;;;;;;;2.65;1.30;;;19.70;99.90;;;;;;5040234;28;20025;-72
2022/04/17 08:57:49;;;;;;;6.38;1.40;;;19.70;99.90;;;;;;5049413;28;20045;-72
2022/04/17 09:00:19;;;;;;;3.10;1.10;;;19.70;99.90;;;;;;5027827;28;20041;-72
2022/04/17 09:02:47;;;;;;;9.10;1.77;;;19.60;99.90;;;;;;5053363;28;20137;-72
2022/04/17 09:05:23;;;;;;;4.97;0.98;;;19.70;99.90;;;;;;5036548;28;20096;-72
2022/04/17 09:07:53;;;;;;;2.97;1.05;;;19.60;99.90;;;;;;5060001;28;20029;-71
2022/04/17 09:10:32;;;;;;;8.35;1.58;;;19.60;99.90;;;;;;5057262;28;20028;-71
2022/04/17 09:13:04;;;;;;;5.50;1.38;;;19.50;99.90;;;;;;5036613;28;20496;-71
2022/04/17 09:15:36;;;;;;;5.53;1.30;;;19.50;99.90;;;;;;5056340;28;20032;-71
2022/04/17 09:18:08;;;;;;;3.17;1.20;;;19.50;99.90;;;;;;5037759;28;20025;-72
2022/04/17 09:20:36;;;;;;;7.65;1.95;;;19.50;99.90;;;;;;5039545;28;20048;-71
2022/04/17 09:23:03;;;;;;;5.95;1.35;;;19.50;99.90;;;;;;5037880;28;20068;-71
2022/04/17 09:25:31;;;;;;;5.32;1.75;;;19.40;99.90;;;;;;5036334;28;20029;-71
2022/04/17 09:28:08;;;;;;;7.30;1.92;;;19.40;99.90;;;;;;5055726;28;20025;-71
2022/04/17 09:30:43;;;;;;;5.10;1.35;;;19.50;99.90;;;;;;5054016;28;20021;-71
2022/04/17 09:33:17;;;;;;;5.70;1.58;;;19.50;99.90;;;;;;5048143;28;20504;-72
2022/04/17 09:35:57;;;;;;;;;;;19.50;99.90;;;;;;5047840;28;20390;-71
2022/04/17 09:38:28;;;;;;;5.30;1.65;;;19.60;99.90;;;;;;5037402;28;20309;-71
2022/04/17 09:41:24;;;;;;;4.50;1.40;;;19.60;99.90;;;;;;5052049;28;20025;-72
2022/04/17 09:43:52;;;;;;;4.18;1.33;;;19.60;99.90;;;;;;5030883;28;20052;-72
2022/04/17 09:46:19;;;;;;;4.32;1.40;;;19.60;99.90;;;;;;5039575;28;20112;-72
2022/04/17 09:48:48;;;;;;;4.78;1.30;;;19.60;99.90;;;;;;5051172;28;20026;-72
2022/04/17 09:51:24;;;;;;;6.10;1.10;;;19.60;99.90;;;;;;5046934;28;20036;-72
2022/04/17 09:54:06;;;;;;;6.63;1.38;;;19.50;99.90;;;;;;5054358;28;20125;-72
2022/04/17 09:56:43;;;;;;;5.15;1.10;;;19.50;99.90;;;;;;5053535;28;20053;-72
2022/04/17 09:59:20;;;;;;;6.00;1.38;;;19.60;99.90;;;;;;5030052;28;20028;-72
2022/04/17 10:01:50;;;;;;;3.28;1.20;;;19.60;99.90;;;;;;5063988;28;20040;-71
2022/04/17 10:04:21;;;;;;;4.53;1.45;;;19.60;99.90;;;;;;5028159;28;20108;-72
2022/04/17 10:06:50;;;;;;;6.82;1.60;;;19.60;99.90;;;;;;5065739;28;20028;-71
2022/04/17 10:09:19;;;;;;;5.50;1.13;;;19.50;99.90;;;;;;5059675;28;20036;-72
2022/04/17 10:11:47;;;;;;;5.90;0.90;;;19.60;99.90;;;;;;5052621;28;20082;-71
2022/04/17 10:14:16;;;;;;;2.92;1.00;;;19.60;99.90;;;;;;5051769;28;20043;-71
2022/04/17 10:16:48;;;;;;;2.95;0.80;;;19.70;99.90;;;;;;5023998;28;20033;-71
2022/04/17 10:19:21;;;;;;;3.42;1.10;;;19.70;99.90;;;;;;5054917;28;20569;-71
2022/04/17 10:21:49;;;;;;;4.13;1.20;;;19.70;99.90;;;;;;5053608;28;20435;-71
2022/04/17 10:24:21;;;;;;;4.70;0.93;;;19.70;99.90;;;;;;5050319;28;20363;-71
2022/04/17 10:26:51;;;;;;;5.82;1.30;;;19.80;99.90;;;;;;5038226;28;20363;-71
2022/04/17 10:29:28;;;;;;;1.92;0.80;;;19.70;99.90;;;;;;5026610;28;20078;-71
2022/04/17 10:32:12;;;;;;;6.60;1.40;;;19.70;99.90;;;;;;5042605;28;20061;-72
2022/04/17 10:34:53;;;;;;;2.92;0.80;;;19.70;99.90;;;;;;5044367;28;20060;-71
2022/04/17 10:37:54;;;;;;;6.72;1.40;;;19.70;99.90;;;;;;5045570;28;20021;-71
2022/04/17 10:40:22;;;;;;;3.10;1.00;;;19.70;99.90;;;;;;5008515;28;20041;-71
2022/04/17 10:42:58;;;;;;;3.88;0.80;;;19.70;99.90;;;;;;5035098;28;20095;-71
2022/04/17 10:45:34;;;;;;;4.50;0.73;;;19.60;99.90;;;;;;5053522;28;20481;-71
2022/04/17 10:48:12;;;;;;;3.13;0.70;;;19.60;99.90;;;;;;5051343;28;20562;-71
2022/04/17 10:50:52;;;;;;;2.25;0.60;;;19.50;99.90;;;;;;5053230;28;20174;-70
2022/04/17 10:53:31;;;;;;;4.13;0.80;;;19.50;99.90;;;;;;5050353;28;20477;-70
2022/04/17 10:56:16;;;;;;;5.38;0.73;;;19.50;99.90;;;;;;5033974;28;20022;-71
2022/04/17 10:58:53;;;;;;;;;;;19.40;99.90;;;;;;5023190;28;20090;-70
2022/04/17 11:01:44;;;;;;;5.88;0.68;;;19.50;99.90;;;;;;5021231;28;19915;-70
2022/04/17 11:04:32;;;;;;;4.38;0.82;;;19.40;99.90;;;;;;5053823;28;20423;-70
2022/04/17 11:07:06;;;;;;;1.23;0.40;;;19.40;99.90;;;;;;5053004;28;20032;-70
2022/04/17 11:09:36;;;;;;;4.63;1.20;;;19.40;99.90;;;;;;5051857;28;20024;-71
2022/04/17 11:12:08;;;;;;;6.70;1.00;;;19.30;99.90;;;;;;5053099;28;20033;-71
2022/04/17 11:14:35;;;;;;;3.92;0.70;;;19.30;99.90;;;;;;5052735;28;20017;-71
2022/04/17 11:17:08;;;;;;;1.70;0.55;;;19.20;99.90;;;;;;5037326;28;20032;-71
2022/04/17 11:19:41;;;;;;;5.70;0.73;;;19.20;99.90;;;;;;5035603;28;20067;-71
2022/04/17 11:22:09;;;;;;;4.38;0.70;;;19.20;99.90;;;;;;5043723;28;20364;-71
2022/04/17 11:24:57;;;;;;;2.10;0.50;;;19.20;99.90;;;;;;5034018;28;20040;-71
2022/04/17 11:27:33;;;;;;;4.15;0.88;;;19.20;99.90;;;;;;5046331;28;20017;-71
2022/04/17 11:30:02;;;;;;;5.88;1.00;;;19.10;99.90;;;;;;5046303;28;20089;-71
2022/04/17 11:32:29;;;;;;;7.25;0.68;;;19.10;99.90;;;;;;5052230;28;20059;-71
2022/04/17 11:35:04;;;;;;;3.08;0.50;;;19.00;99.90;;;;;;5048184;28;20025;-71
2022/04/17 11:37:33;;;;;;;3.33;0.60;;;19.10;99.90;;;;;;5025055;28;21109;-71
2022/04/17 11:40:11;;;;;;;2.88;0.60;;;19.00;99.90;;;;;;5044940;28;20489;-71
2022/04/17 11:42:45;;;;;;;3.42;0.40;;;19.00;99.90;;;;;;5046707;28;20024;-71
2022/04/17 11:45:14;;;;;;;4.35;0.50;;;19.10;99.90;;;;;;5042172;28;20623;-71
2022/04/17 11:47:45;;;;;;;5.28;0.98;;;19.00;99.90;;;;;;5047168;28;20017;-71
2022/04/17 11:50:26;;;;;;;1.92;0.50;;;19.00;99.90;;;;;;5044646;28;20039;-71
2022/04/17 11:52:59;;;;;;;2.97;0.85;;;19.00;99.90;;;;;;5046104;28;20397;-71
2022/04/17 11:55:32;;;;;;;2.63;0.40;;;19.00;99.90;;;;;;5050309;28;20029;-71
2022/04/17 11:58:01;;;;;;;3.42;0.47;;;19.00;99.90;;;;;;5021715;28;20029;-71
2022/04/17 12:00:30;;;;;;;5.18;1.10;;;18.90;99.90;;;;;;5034820;28;20033;-71
2022/04/17 12:03:00;;;;;;;4.40;0.50;;;18.90;99.90;;;;;;5029095;28;20091;-71
2022/04/17 12:05:28;;;;;;;3.50;0.50;;;19.00;99.90;;;;;;5045869;28;20025;-72
2022/04/17 12:08:09;;;;;;;1.98;0.50;;;18.90;99.90;;;;;;5050043;28;20036;-71
2022/04/17 12:10:41;;;;;;;2.25;0.40;;;18.90;99.90;;;;;;5055065;28;20029;-71
2022/04/17 12:13:16;;;;;;;2.72;0.60;;;18.90;99.90;;;;;;5047769;28;20559;-71
2022/04/17 12:15:44;;;;;;;7.10;0.73;;;18.80;99.90;;;;;;5055418;28;20039;-71
2022/04/17 12:18:16;;;;;;;2.55;0.70;;;18.80;99.90;;;;;;5051572;28;20032;-72
2022/04/17 12:20:43;;;;;;;2.78;0.50;;;18.80;99.90;;;;;;5054426;28;20021;-71
2022/04/17 12:23:11;;;;;;;4.82;0.57;;;18.70;99.90;;;;;;5053974;28;20029;-71
2022/04/17 12:25:39;;;;;;;3.55;1.08;;;18.70;99.90;;;;;;5052224;28;20021;-71
2022/04/17 12:28:08;;;;;;;2.25;0.60;;;18.70;99.90;;;;;;5050434;28;20060;-72
2022/04/17 12:30:35;;;;;;;2.22;0.60;;;18.70;99.90;;;;;;5031165;28;20026;-72
2022/04/17 12:33:18;;;;;;;5.78;0.65;;;18.70;99.90;;;;;;5053920;28;20045;-72
2022/04/17 12:35:46;;;;;;;6.13;0.52;;;18.70;99.90;;;;;;5059524;28;20052;-72
2022/04/17 12:38:13;;;;;;;3.35;0.40;;;18.60;99.90;;;;;;5044109;28;20030;-72
2022/04/17 12:40:44;;;;;;;4.35;0.30;;;18.60;99.90;;;;;;5055887;28;20092;-72
2022/04/17 12:43:28;;;;;;;4.40;0.93;;;18.60;99.90;;;;;;5057111;28;20041;-72
2022/04/17 12:45:56;;;;;;;3.55;0.82;;;18.60;99.90;;;;;;5056781;28;20059;-72
2022/04/17 12:48:33;;;;;;;0.70;0.50;;;18.50;99.90;;;;;;5056011;28;20166;-72
2022/04/17 12:51:11;;;;;;;8.75;0.90;;;18.60;99.90;;;;;;5044873;28;20037;-72
2022/04/17 12:53:41;;;;;;;3.28;0.80;;;18.70;99.90;;;;;;5053788;28;20036;-72
2022/04/17 12:56:10;;;;;;;2.10;0.47;;;18.70;99.90;;;;;;5057992;28;20369;-72
2022/04/17 12:59:09;;;;;;;5.43;0.50;;;18.70;99.90;;;;;;5052617;28;20120;-72
2022/04/17 13:01:40;;;;;;;4.55;1.25;;;18.70;99.90;;;;;;5036337;28;20145;-72
2022/04/17 13:04:23;;;;;;;4.60;1.23;;;18.60;99.90;;;;;;5040816;28;20029;-72
2022/04/17 13:07:09;;;;;;;5.22;0.88;;;18.60;99.90;;;;;;5051007;28;20029;-72
2022/04/17 13:09:36;;;;;;;2.58;0.80;;;18.50;99.90;;;;;;5048711;28;20552;-72
2022/04/17 13:12:03;;;;;;;3.60;0.60;;;18.50;99.90;;;;;;5047824;28;20477;-72
2022/04/17 13:14:31;;;;;;;4.55;0.93;;;18.50;99.90;;;;;;5055073;28;20025;-72
2022/04/17 13:17:02;;;;;;;4.30;1.45;;;18.50;99.90;;;;;;5053366;28;20028;-71
2022/04/17 13:19:31;;;;;;;4.80;1.50;;;18.50;99.90;;;;;;5052646;28;20017;-72
2022/04/17 13:21:59;;;;;;;9.32;1.30;;;18.40;99.90;;;;;;5052011;28;20183;-72
2022/04/17 13:24:29;;;;;;;2.67;0.70;;;18.40;99.90;;;;;;5050517;28;20413;-71